Time;durP1;ratioP1;P1;durP2;ratioP2;P2;SDS_P1;SDS_P2;PMS_P1;PMS_P2;Temp;Humidity;BMP_temperature;BMP_pressure;BME280_temperature;BME280_humidity;BME280_pressure;Samples;Min_cycle;Max_cycle;Signal;HPM_P1;HPM_P2
2023/03/12 00:01:15;;;;;;;0.00;0.00;;;;;;;-1.34;93.30;98306.41;4958097;28;20249;-56
2023/03/12 00:03:41;;;;;;;0.00;0.00;;;;;;;-1.28;93.79;98296.72;4955331;28;20237;-57
2023/03/12 00:06:08;;;;;;;0.00;0.00;;;;;;;-1.29;93.64;98297.63;4960876;28;20233;-58
2023/03/12 00:08:35;;;;;;;0.00;0.00;;;;;;;-1.30;93.47;98301.09;4959866;28;20658;-56
2023/03/12 00:11:06;;;;;;;0.00;0.00;;;;;;;-1.37;93.71;98286.06;4954691;28;20931;-58
2023/03/12 00:13:33;;;;;;;0.00;0.00;;;;;;;-1.35;94.35;98293.66;4964062;28;20278;-58
2023/03/12 00:16:04;;;;;;;0.00;0.00;;;;;;;-1.36;93.63;98285.16;4967750;28;20238;-57
2023/03/12 00:18:32;;;;;;;0.00;0.00;;;;;;;-1.38;94.35;98291.25;4964203;28;20289;-58
2023/03/12 00:20:58;;;;;;;0.00;0.00;;;;;;;-1.39;93.61;98287.06;4967101;28;20242;-55
2023/03/12 00:23:25;;;;;;;0.00;0.00;;;;;;;-1.33;94.10;98291.84;4964336;28;20229;-54
2023/03/12 00:25:51;;;;;;;0.00;0.00;;;;;;;-1.28;94.09;98286.47;4964947;28;20296;-55
2023/03/12 00:28:18;;;;;;;0.00;0.00;;;;;;;-1.26;93.67;98284.66;4970146;28;20232;-56
2023/03/12 00:30:44;;;;;;;0.00;0.00;;;;;;;-1.34;94.40;98280.78;4964861;28;20236;-56
2023/03/12 00:33:12;;;;;;;0.00;0.00;;;;;;;-1.27;94.54;98275.34;4965278;28;20237;-55
2023/03/12 00:35:40;;;;;;;0.00;0.00;;;;;;;-1.30;94.51;98271.19;4963652;28;20605;-54
2023/03/12 00:38:06;;;;;;;0.00;0.00;;;;;;;-1.36;94.68;98277.50;4967468;28;20243;-53
2023/03/12 00:40:33;;;;;;;0.00;0.00;;;;;;;-1.31;94.89;98269.53;4962262;28;20232;-53
2023/03/12 00:43:00;;;;;;;0.00;0.00;;;;;;;-1.35;95.70;98273.19;4978073;28;20249;-54
2023/03/12 00:45:26;;;;;;;0.00;0.00;;;;;;;-1.34;95.96;98267.16;4965962;28;20226;-56
2023/03/12 00:47:53;;;;;;;0.00;0.00;;;;;;;-1.36;96.49;98272.38;4966127;28;20769;-53
2023/03/12 00:50:19;;;;;;;0.00;0.00;;;;;;;-1.34;95.59;98275.66;4967114;28;20231;-56
2023/03/12 00:52:47;;;;;;;0.00;0.00;;;;;;;-1.31;95.58;98266.97;4961801;28;20234;-55
2023/03/12 00:55:14;;;;;;;0.00;0.00;;;;;;;-1.26;95.52;98279.53;4964620;28;20221;-54
2023/03/12 00:57:41;;;;;;;0.00;0.00;;;;;;;-1.10;95.16;98293.16;4962656;28;20230;-54
2023/03/12 01:00:10;;;;;;;0.00;0.00;;;;;;;-1.07;95.30;98284.47;4965698;28;20226;-54
2023/03/12 01:02:37;;;;;;;0.00;0.00;;;;;;;-1.05;95.18;98285.19;4961322;28;20226;-54
2023/03/12 01:05:04;;;;;;;0.00;0.00;;;;;;;-0.96;94.96;98288.97;4965940;28;20248;-55
2023/03/12 01:07:31;;;;;;;0.00;0.00;;;;;;;-0.93;95.52;98288.81;4962614;28;20217;-53
2023/03/12 01:10:00;;;;;;;0.00;0.00;;;;;;;-0.88;95.06;98294.50;4954946;28;20314;-53
2023/03/12 01:12:27;;;;;;;0.00;0.00;;;;;;;-0.81;94.74;98297.53;4962791;28;20284;-54
2023/03/12 01:14:54;;;;;;;0.00;0.00;;;;;;;-0.77;94.41;98301.59;4952159;28;20741;-57
2023/03/12 01:17:20;;;;;;;0.00;0.00;;;;;;;-0.73;94.79;98309.91;4948802;28;20238;-54
2023/03/12 01:19:47;;;;;;;0.00;0.00;;;;;;;-0.67;93.52;98309.56;4959597;28;20681;-53
2023/03/12 01:22:14;;;;;;;0.00;0.00;;;;;;;-0.60;91.50;98311.72;4961803;28;20305;-57
2023/03/12 01:24:40;;;;;;;0.00;0.00;;;;;;;-0.55;90.92;98311.44;4949098;28;20231;-53
2023/03/12 01:27:08;;;;;;;0.00;0.00;;;;;;;-0.50;92.01;98309.44;4963390;28;20240;-54
2023/03/12 01:29:35;;;;;;;0.00;0.00;;;;;;;-0.53;92.20;98317.28;4963727;28;20218;-55
2023/03/12 01:32:01;;;;;;;0.00;0.00;;;;;;;-0.54;92.73;98307.94;4963805;28;20294;-53
2023/03/12 01:34:29;;;;;;;0.00;0.00;;;;;;;-0.50;92.29;98308.59;4965346;28;20229;-56
2023/03/12 01:36:56;;;;;;;0.00;0.00;;;;;;;-0.51;92.75;98301.81;4979557;28;20250;-53
2023/03/12 01:39:24;;;;;;;0.00;0.00;;;;;;;-0.54;91.97;98302.81;4968758;28;20249;-54
2023/03/12 01:41:51;;;;;;;0.00;0.00;;;;;;;-0.54;91.76;98299.44;4965224;28;20265;-54
2023/03/12 01:44:19;;;;;;;0.00;0.00;;;;;;;-0.53;93.04;98296.78;4966687;28;20217;-53
2023/03/12 01:46:46;;;;;;;0.00;0.00;;;;;;;-0.44;92.77;98295.41;4956695;28;20229;-56
2023/03/12 01:49:26;;;;;;;0.00;0.00;;;;;;;-0.42;93.29;98295.34;4964546;28;20225;-55
2023/03/12 01:51:58;;;;;;;0.00;0.00;;;;;;;-0.37;92.90;98288.19;4966076;28;20294;-56
2023/03/12 01:54:30;;;;;;;0.00;0.00;;;;;;;-0.40;93.46;98278.94;4963325;28;20594;-53
2023/03/12 01:56:58;;;;;;;0.00;0.00;;;;;;;-0.40;92.74;98273.00;4966225;28;20257;-53
2023/03/12 01:59:31;;;;;;;0.00;0.00;;;;;;;-0.45;92.94;98273.25;4963594;28;20229;-53
2023/03/12 02:01:58;;;;;;;0.00;0.00;;;;;;;-0.45;93.08;98268.97;4963040;28;20682;-55
2023/03/12 02:04:28;;;;;;;0.00;0.00;;;;;;;-0.45;93.40;98268.97;4954529;28;20257;-57
2023/03/12 02:07:02;;;;;;;0.00;0.00;;;;;;;-0.36;93.37;98261.63;4963648;28;20229;-54
2023/03/12 02:09:30;;;;;;;0.00;0.00;;;;;;;-0.31;93.05;98260.44;4961959;28;20284;-54
2023/03/12 02:11:57;;;;;;;0.00;0.00;;;;;;;-0.27;91.83;98263.66;4955572;28;20236;-53
2023/03/12 02:14:26;;;;;;;0.00;0.00;;;;;;;-0.23;92.27;98260.00;4961766;28;20551;-54
2023/03/12 02:16:53;;;;;;;0.00;0.00;;;;;;;-0.20;91.05;98257.25;4957256;28;20329;-56
2023/03/12 02:19:27;;;;;;;0.00;0.00;;;;;;;-0.13;90.84;98246.63;4973049;28;20252;-56
2023/03/12 02:21:54;;;;;;;0.00;0.00;;;;;;;-0.10;91.06;98243.88;4962983;28;20892;-57
2023/03/12 02:24:29;;;;;;;0.00;0.00;;;;;;;-0.08;91.24;98230.03;4965607;28;20249;-56
2023/03/12 02:26:59;;;;;;;0.00;0.00;;;;;;;0.02;92.12;98232.03;4960862;28;20231;-59
2023/03/12 02:29:31;;;;;;;0.00;0.00;;;;;;;0.07;92.13;98238.50;4982715;28;20228;-56
2023/03/12 02:34:40;;;;;;;0.00;0.00;;;;;;;0.11;92.54;98227.16;5385307;23;20752;-53
2023/03/12 02:37:10;;;;;;;0.00;0.00;;;;;;;0.13;92.11;98224.50;4945537;29;20764;-53
2023/03/12 02:39:39;;;;;;;0.00;0.00;;;;;;;0.17;92.22;98214.84;4948593;28;20273;-53
2023/03/12 02:42:07;;;;;;;0.00;0.00;;;;;;;0.21;91.74;98209.44;4965012;28;20242;-56
2023/03/12 02:44:35;;;;;;;0.00;0.00;;;;;;;0.19;92.28;98201.03;4942548;29;20245;-53
2023/03/12 02:47:02;;;;;;;0.00;0.00;;;;;;;0.25;92.27;98195.50;4930051;29;20427;-55
2023/03/12 02:49:32;;;;;;;0.00;0.00;;;;;;;0.31;92.21;98206.31;4928190;29;20770;-53
2023/03/12 02:52:00;;;;;;;0.00;0.00;;;;;;;0.35;92.41;98195.75;4944155;29;20322;-55
2023/03/12 02:54:27;;;;;;;0.00;0.00;;;;;;;0.36;92.89;98202.53;4927248;29;20250;-53
2023/03/12 02:56:54;;;;;;;0.00;0.00;;;;;;;0.42;93.83;98212.41;4927471;29;20230;-56
2023/03/12 02:59:25;;;;;;;0.00;0.00;;;;;;;0.48;94.19;98215.50;4944994;29;20227;-53
2023/03/12 03:01:55;;;;;;;0.00;0.00;;;;;;;0.55;94.16;98216.75;4927138;29;20245;-55
2023/03/12 03:04:22;;;;;;;0.00;0.00;;;;;;;0.62;93.85;98220.59;4945158;29;20262;-56
2023/03/12 03:06:49;;;;;;;0.00;0.00;;;;;;;0.67;93.36;98238.25;4935997;29;20235;-55
2023/03/12 03:09:16;;;;;;;0.00;0.00;;;;;;;0.76;94.46;98240.25;4945049;29;20226;-57
2023/03/12 03:11:43;;;;;;;0.00;0.00;;;;;;;0.84;94.95;98234.63;4943877;29;22485;-53
2023/03/12 03:14:10;;;;;;;0.00;0.00;;;;;;;0.93;95.22;98234.03;4930124;29;20231;-53
2023/03/12 03:16:38;;;;;;;0.00;0.00;;;;;;;1.00;95.50;98225.03;4945305;29;20301;-53
2023/03/12 03:19:05;;;;;;;0.00;0.00;;;;;;;1.06;95.21;98231.50;4947389;29;20239;-56
2023/03/12 03:21:32;;;;;;;0.00;0.00;;;;;;;1.07;94.67;98229.72;4924561;29;20267;-53
2023/03/12 03:23:59;;;;;;;0.00;0.00;;;;;;;1.13;93.91;98231.91;4922203;29;20239;-53
2023/03/12 03:26:25;;;;;;;0.00;0.00;;;;;;;1.20;94.48;98225.44;4936390;29;20235;-56
2023/03/12 03:28:52;;;;;;;0.00;0.00;;;;;;;1.18;94.59;98232.41;4930917;29;20842;-53
2023/03/12 03:31:20;;;;;;;0.00;0.00;;;;;;;1.26;92.88;98225.03;4931538;29;20254;-53
2023/03/12 03:33:49;;;;;;;0.00;0.00;;;;;;;1.24;93.61;98226.06;4934845;28;20242;-53
2023/03/12 03:36:16;;;;;;;0.00;0.00;;;;;;;1.27;93.32;98236.16;4931183;29;20711;-55
2023/03/12 03:38:52;;;;;;;0.00;0.00;;;;;;;1.33;94.04;98230.59;4929211;29;20236;-56
2023/03/12 03:41:21;;;;;;;0.00;0.00;;;;;;;1.34;94.54;98229.69;4930555;29;20234;-57
2023/03/12 03:43:48;;;;;;;0.00;0.00;;;;;;;1.35;94.78;98218.47;4925071;29;20270;-55
2023/03/12 03:46:18;;;;;;;0.00;0.00;;;;;;;1.42;96.19;98212.00;4928789;29;20726;-56
2023/03/12 03:48:52;;;;;;;0.00;0.00;;;;;;;1.45;96.85;98213.50;4926071;29;20249;-59
2023/03/12 03:51:22;;;;;;;0.00;0.00;;;;;;;1.45;95.91;98214.34;4931582;29;20238;-56
2023/03/12 03:53:53;;;;;;;0.00;0.00;;;;;;;1.49;94.33;98214.97;4916732;29;20297;-53
2023/03/12 03:56:21;;;;;;;0.00;0.00;;;;;;;1.55;94.52;98200.88;4928473;29;20230;-55
2023/03/12 03:58:49;;;;;;;0.00;0.00;;;;;;;1.62;93.64;98186.63;4925850;29;20322;-55
2023/03/12 04:01:18;;;;;;;0.00;0.00;;;;;;;1.75;93.17;98189.22;4928305;29;20235;-56
2023/03/12 04:03:46;;;;;;;0.00;0.00;;;;;;;1.76;92.59;98196.81;4928498;29;20238;-54
2023/03/12 04:06:15;;;;;;;0.00;0.00;;;;;;;1.86;91.76;98203.91;4947124;29;20334;-54
2023/03/12 04:08:42;;;;;;;0.00;0.00;;;;;;;1.92;90.26;98213.78;4928339;29;20234;-55
2023/03/12 04:11:14;;;;;;;0.00;0.00;;;;;;;2.01;90.55;98200.25;4947348;29;20594;-51
2023/03/12 04:13:42;;;;;;;0.00;0.00;;;;;;;2.08;91.72;98203.25;4927671;29;20230;-55
2023/03/12 04:16:10;;;;;;;0.00;0.00;;;;;;;2.09;91.38;98193.75;4943051;29;20306;-55
2023/03/12 04:18:36;;;;;;;0.00;0.00;;;;;;;2.10;92.66;98198.81;4940254;29;20241;-56
2023/03/12 04:21:05;;;;;;;0.00;0.00;;;;;;;2.08;92.09;98199.84;4934141;28;20274;-52
2023/03/12 04:23:33;;;;;;;0.00;0.00;;;;;;;2.11;91.90;98200.47;4912509;29;20766;-55
2023/03/12 04:26:00;;;;;;;0.00;0.00;;;;;;;2.10;92.93;98200.56;4945915;28;20230;-55
2023/03/12 04:28:28;;;;;;;0.00;0.00;;;;;;;2.08;91.90;98189.53;4944984;28;20269;-52
2023/03/12 04:30:58;;;;;;;0.00;0.00;;;;;;;2.05;94.41;98193.97;5220767;23;20214;-54
2023/03/12 04:33:24;;;;;;;0.00;0.00;;;;;;;2.06;94.91;98187.91;4979840;28;20303;-56
2023/03/12 04:35:52;;;;;;;0.00;0.00;;;;;;;2.04;96.35;98186.38;4984921;28;20295;-55
2023/03/12 04:38:20;;;;;;;0.00;0.00;;;;;;;2.03;98.12;98195.03;4974880;28;20264;-55
2023/03/12 04:40:57;;;;;;;0.00;0.00;;;;;;;2.04;97.58;98194.91;4998850;28;20225;-55
2023/03/12 04:43:24;;;;;;;0.00;0.00;;;;;;;2.02;98.61;98194.19;4973319;28;20240;-56
2023/03/12 04:45:51;;;;;;;0.00;0.00;;;;;;;1.99;99.23;98198.75;4983735;28;20233;-57
2023/03/12 04:48:17;;;;;;;0.00;0.00;;;;;;;1.92;97.53;98198.31;4986825;28;20600;-55
2023/03/12 04:50:45;;;;;;;0.00;0.00;;;;;;;1.90;97.39;98203.59;4982131;28;20240;-53
2023/03/12 04:53:12;;;;;;;0.00;0.00;;;;;;;1.86;97.88;98206.47;4985162;28;20225;-55
2023/03/12 04:55:39;;;;;;;0.00;0.00;;;;;;;1.79;98.54;98208.66;4983800;28;20444;-54
2023/03/12 04:58:07;;;;;;;0.00;0.00;;;;;;;1.75;99.04;98196.94;4985243;28;20262;-55
2023/03/12 05:00:34;;;;;;;0.00;0.00;;;;;;;1.70;100.00;98202.38;4981944;28;20308;-55
2023/03/12 05:03:00;;;;;;;0.00;0.00;;;;;;;1.64;100.00;98210.50;4987458;28;20243;-56
2023/03/12 05:05:27;;;;;;;0.00;0.00;;;;;;;1.62;100.00;98208.06;4985518;28;20240;-53
2023/03/12 05:07:56;;;;;;;0.00;0.00;;;;;;;1.50;99.35;98216.59;4984997;28;20724;-54
2023/03/12 05:10:22;;;;;;;0.00;0.00;;;;;;;1.47;98.20;98219.38;4984769;28;20248;-57
2023/03/12 05:12:49;;;;;;;0.00;0.00;;;;;;;1.46;98.18;98218.56;4983537;28;21350;-53
2023/03/12 05:15:18;;;;;;;0.00;0.00;;;;;;;1.44;99.95;98223.00;4985680;28;20235;-54
2023/03/12 05:17:45;;;;;;;0.00;0.00;;;;;;;1.37;99.86;98223.50;4996873;28;20240;-55
2023/03/12 05:20:12;;;;;;;0.00;0.00;;;;;;;1.33;100.00;98218.56;4984823;28;20233;-55
2023/03/12 05:22:39;;;;;;;0.00;0.00;;;;;;;1.33;100.00;98210.84;4981092;28;20260;-54
2023/03/12 05:25:07;;;;;;;0.00;0.00;;;;;;;1.31;100.00;98207.53;4984366;28;20230;-54
2023/03/12 05:27:34;;;;;;;0.00;0.00;;;;;;;1.33;100.00;98187.69;4981657;28;20269;-54
2023/03/12 05:30:01;;;;;;;0.00;0.00;;;;;;;1.27;100.00;98195.81;4978218;28;20581;-55
2023/03/12 05:32:28;;;;;;;0.00;0.00;;;;;;;1.33;100.00;98199.75;4966678;28;20233;-54
2023/03/12 05:34:55;;;;;;;0.00;0.00;;;;;;;1.27;100.00;98200.97;4982866;28;20229;-56
2023/03/12 05:37:22;;;;;;;0.00;0.00;;;;;;;1.29;100.00;98206.00;4984801;28;20317;-53
2023/03/12 05:39:50;;;;;;;0.00;0.00;;;;;;;1.31;100.00;98204.97;4963162;28;20649;-55
2023/03/12 05:42:18;;;;;;;0.00;0.00;;;;;;;1.29;100.00;98211.97;4966545;28;20597;-56
2023/03/12 05:44:45;;;;;;;0.00;0.00;;;;;;;1.32;100.00;98213.53;4960536;28;20248;-53
2023/03/12 05:47:15;;;;;;;0.00;0.00;;;;;;;1.37;100.00;98213.22;4965950;28;20622;-57
2023/03/12 05:49:44;;;;;;;0.00;0.00;;;;;;;1.35;100.00;98222.78;4977640;28;20230;-54
2023/03/12 05:52:11;;;;;;;0.00;0.00;;;;;;;1.33;100.00;98212.59;4985787;28;20248;-54
2023/03/12 05:54:38;;;;;;;0.00;0.00;;;;;;;1.36;100.00;98203.84;4982460;28;20237;-56
2023/03/12 05:57:06;;;;;;;0.00;0.00;;;;;;;1.41;100.00;98201.78;4984173;28;20287;-55
2023/03/12 05:59:32;;;;;;;0.00;0.00;;;;;;;1.39;100.00;98207.06;4965351;28;20891;-56
2023/03/12 06:02:00;;;;;;;0.00;0.00;;;;;;;1.35;100.00;98194.47;4984420;28;20247;-54
2023/03/12 06:04:27;;;;;;;0.00;0.00;;;;;;;1.37;100.00;98197.78;4981763;28;20322;-53
2023/03/12 06:06:55;;;;;;;0.00;0.00;;;;;;;1.46;100.00;98197.16;4983772;28;20246;-54
2023/03/12 06:09:22;;;;;;;0.00;0.00;;;;;;;1.43;100.00;98193.06;4997901;28;20226;-53
2023/03/12 06:11:49;;;;;;;0.00;0.00;;;;;;;1.45;100.00;98195.50;4996280;28;20685;-53
2023/03/12 06:14:15;;;;;;;0.00;0.00;;;;;;;1.44;100.00;98191.28;4984972;28;20253;-56
2023/03/12 06:16:42;;;;;;;0.00;0.00;;;;;;;1.49;100.00;98191.81;4964803;28;20622;-54
2023/03/12 06:19:13;;;;;;;0.00;0.00;;;;;;;1.59;100.00;98197.16;4984707;28;20639;-54
2023/03/12 06:21:40;;;;;;;0.00;0.00;;;;;;;1.50;100.00;98197.78;4978796;28;20229;-54
2023/03/12 06:24:09;;;;;;;0.00;0.00;;;;;;;1.57;100.00;98204.16;4964266;28;20235;-53
2023/03/12 06:26:42;;;;;;;0.00;0.00;;;;;;;1.61;100.00;98201.25;4961555;28;20229;-53
2023/03/12 06:29:08;;;;;;;0.00;0.00;;;;;;;1.67;100.00;98200.00;4966073;28;20723;-56
2023/03/12 06:31:35;;;;;;;0.00;0.00;;;;;;;1.78;100.00;98191.56;4962669;28;20635;-56
2023/03/12 06:34:02;;;;;;;0.00;0.00;;;;;;;1.81;100.00;98196.50;4965810;28;20237;-53
2023/03/12 06:36:28;;;;;;;0.00;0.00;;;;;;;1.83;100.00;98189.50;4964586;28;20285;-55
2023/03/12 06:38:55;;;;;;;0.00;0.00;;;;;;;1.85;100.00;98187.66;4964247;28;20238;-53
2023/03/12 06:41:23;;;;;;;0.00;0.00;;;;;;;1.90;100.00;98201.03;4965720;28;20245;-55
2023/03/12 06:43:49;;;;;;;0.00;0.00;;;;;;;2.01;100.00;98209.75;4962531;28;20577;-56
2023/03/12 06:46:20;;;;;;;0.00;0.00;;;;;;;2.20;100.00;98194.63;4980393;28;20252;-56
2023/03/12 06:48:47;;;;;;;0.00;0.00;;;;;;;2.30;100.00;98205.13;4962811;28;20233;-53
2023/03/12 06:51:16;;;;;;;0.00;0.00;;;;;;;2.39;100.00;98195.91;4965651;28;20609;-53
2023/03/12 06:53:43;;;;;;;0.00;0.00;;;;;;;2.50;100.00;98200.31;4962031;28;20231;-53
2023/03/12 06:56:11;;;;;;;0.00;0.00;;;;;;;2.60;100.00;98192.72;4965302;28;20273;-56
2023/03/12 06:58:39;;;;;;;0.00;0.00;;;;;;;2.78;100.00;98191.41;4962653;28;20587;-56
2023/03/12 07:01:05;;;;;;;0.00;0.00;;;;;;;3.20;100.00;98201.22;4965762;28;20246;-53
2023/03/12 07:03:32;;;;;;;0.00;0.00;;;;;;;3.67;100.00;98192.59;4961993;28;20237;-54
2023/03/12 07:05:59;;;;;;;0.00;0.00;;;;;;;4.10;100.00;98193.63;4965274;28;20300;-53
2023/03/12 07:08:29;;;;;;;11.37;7.23;;;;;;;4.32;100.00;98207.41;4964530;28;20237;-56
2023/03/12 07:10:56;;;;;;;9.93;5.67;;;;;;;4.42;100.00;98206.56;4975015;28;20876;-56
2023/03/12 07:13:23;;;;;;;19.53;10.40;;;;;;;4.45;100.00;98215.03;4984485;28;20593;-55
2023/03/12 07:15:51;;;;;;;9.67;7.03;;;;;;;4.55;100.00;98198.66;4984463;28;20244;-54
2023/03/12 07:18:17;;;;;;;7.10;5.53;;;;;;;4.73;100.00;98213.63;4986881;28;20236;-57
2023/03/12 07:20:46;;;;;;;8.47;5.30;;;;;;;4.79;100.00;98228.66;4985165;28;20248;-53
2023/03/12 07:23:13;;;;;;;26.63;12.07;;;;;;;4.83;100.00;98221.44;4988104;28;20596;-54
2023/03/12 07:25:42;;;;;;;9.57;5.87;;;;;;;4.76;100.00;98235.84;4985471;28;20228;-56
2023/03/12 07:28:09;;;;;;;11.03;6.37;;;;;;;4.41;100.00;98214.44;4987614;28;20236;-52
2023/03/12 07:30:36;;;;;;;15.17;7.63;;;;;;;4.49;100.00;98224.97;4984932;28;20247;-55
2023/03/12 07:33:05;;;;;;;14.90;7.50;;;;;;;4.14;100.00;98221.66;4987542;28;20239;-56
2023/03/12 07:35:32;;;;;;;16.90;9.60;;;;;;;4.16;100.00;98229.31;4984914;28;20233;-56
2023/03/12 07:38:00;;;;;;;12.30;7.57;;;;;;;4.12;100.00;98227.91;4988286;28;20243;-57
2023/03/12 07:40:27;;;;;;;39.40;20.03;;;;;;;4.08;100.00;98234.25;4986994;28;20232;-55
2023/03/12 07:42:56;;;;;;;19.97;11.03;;;;;;;4.17;100.00;98236.09;4978596;28;20238;-55
2023/03/12 07:45:23;;;;;;;12.00;8.37;;;;;;;4.21;100.00;98247.00;4987451;28;20245;-57
2023/03/12 07:47:51;;;;;;;0.00;0.00;;;;;;;3.88;100.00;98244.34;4985593;28;22334;-57
2023/03/12 07:50:19;;;;;;;0.00;0.00;;;;;;;3.85;100.00;98239.41;4983156;28;20687;-55
2023/03/12 07:52:46;;;;;;;0.00;0.00;;;;;;;3.99;100.00;98230.59;4964111;28;20636;-55
2023/03/12 07:55:13;;;;;;;0.00;0.00;;;;;;;3.96;100.00;98238.56;4968221;28;20237;-54
2023/03/12 07:57:40;;;;;;;0.00;0.00;;;;;;;4.01;100.00;98239.03;4965689;28;20225;-54
2023/03/12 08:00:09;;;;;;;0.00;0.00;;;;;;;4.15;100.00;98235.41;4967517;28;20242;-54
2023/03/12 08:02:38;;;;;;;0.00;0.00;;;;;;;4.20;100.00;98245.38;4964614;28;20304;-56
2023/03/12 08:05:05;;;;;;;0.00;0.00;;;;;;;4.33;100.00;98243.47;4968088;28;20234;-54
2023/03/12 08:07:34;;;;;;;0.00;0.00;;;;;;;4.47;100.00;98255.28;4965306;28;20320;-57
2023/03/12 08:10:02;;;;;;;0.00;0.00;;;;;;;4.55;100.00;98265.03;4969212;28;20226;-57
2023/03/12 08:12:28;;;;;;;0.00;0.00;;;;;;;4.72;100.00;98268.88;4975702;28;20229;-55
2023/03/12 08:14:55;;;;;;;0.00;0.00;;;;;;;4.80;100.00;98276.84;4985670;28;20705;-54
2023/03/12 08:17:22;;;;;;;0.00;0.00;;;;;;;4.78;100.00;98286.47;4987515;28;20592;-57
2023/03/12 08:19:48;;;;;;;0.00;0.00;;;;;;;4.74;100.00;98298.00;4984562;28;20233;-56
2023/03/12 08:22:15;;;;;;;0.00;0.00;;;;;;;4.70;100.00;98288.84;4986939;28;20240;-56
2023/03/12 08:24:43;;;;;;;0.10;0.10;;;;;;;4.97;100.00;98283.22;4983734;28;20237;-55
2023/03/12 08:27:10;;;;;;;0.00;0.00;;;;;;;5.34;100.00;98291.53;4986624;28;20786;-53
2023/03/12 08:29:37;;;;;;;0.00;0.00;;;;;;;5.59;100.00;98292.91;4984461;28;20244;-56
2023/03/12 08:32:04;;;;;;;0.00;0.00;;;;;;;5.78;100.00;98291.41;4985734;28;20232;-56
2023/03/12 08:34:31;;;;;;;0.00;0.00;;;;;;;5.93;100.00;98292.69;4983503;28;20232;-56
2023/03/12 08:36:58;;;;;;;0.00;0.00;;;;;;;6.03;100.00;98310.91;4973266;28;20248;-55
2023/03/12 08:39:24;;;;;;;0.00;0.00;;;;;;;6.09;100.00;98301.81;4966416;28;20617;-56
2023/03/12 08:41:54;;;;;;;0.00;0.00;;;;;;;6.21;100.00;98308.53;4965835;28;20250;-54
2023/03/12 08:44:20;;;;;;;0.00;0.00;;;;;;;6.14;100.00;98304.81;4967369;28;20256;-53
2023/03/12 08:46:47;;;;;;;0.00;0.00;;;;;;;6.12;100.00;98311.91;4964425;28;20238;-53
2023/03/12 08:49:14;;;;;;;0.00;0.00;;;;;;;6.09;100.00;98320.75;4966857;28;20221;-56
2023/03/12 08:51:40;;;;;;;0.00;0.00;;;;;;;6.14;100.00;98320.38;4964534;28;20697;-57
2023/03/12 08:54:08;;;;;;;0.10;0.10;;;;;;;6.14;100.00;98316.00;4966978;28;20226;-56
2023/03/12 08:56:35;;;;;;;0.00;0.00;;;;;;;6.23;100.00;98324.78;4964072;28;20794;-56
2023/03/12 08:59:03;;;;;;;0.00;0.00;;;;;;;6.37;100.00;98322.75;4967004;28;20708;-55
2023/03/12 09:01:30;;;;;;;0.00;0.00;;;;;;;6.49;100.00;98332.06;4965711;28;20230;-55
2023/03/12 09:03:56;;;;;;;0.00;0.00;;;;;;;6.58;100.00;98333.88;4978134;28;20248;-53
2023/03/12 09:06:23;;;;;;;0.00;0.00;;;;;;;6.68;100.00;98330.50;4986528;28;20612;-54
2023/03/12 09:08:50;;;;;;;0.00;0.00;;;;;;;6.69;100.00;98339.91;4983683;28;20230;-56
2023/03/12 09:11:17;;;;;;;0.00;0.00;;;;;;;6.72;100.00;98343.06;4986228;28;20232;-54
2023/03/12 09:13:44;;;;;;;0.00;0.00;;;;;;;6.69;100.00;98334.72;4983193;28;20243;-53
2023/03/12 09:16:12;;;;;;;0.00;0.00;;;;;;;6.75;100.00;98329.00;4981010;28;20233;-53
2023/03/12 09:18:39;;;;;;;0.00;0.00;;;;;;;6.79;100.00;98336.41;4973221;28;20724;-54
2023/03/12 09:21:06;;;;;;;0.00;0.00;;;;;;;6.78;100.00;98339.13;4985828;28;20689;-55
2023/03/12 09:23:32;;;;;;;0.00;0.00;;;;;;;6.84;100.00;98355.94;4982800;28;20325;-57
2023/03/12 09:25:59;;;;;;;0.00;0.00;;;;;;;6.90;100.00;98353.63;4985995;28;20628;-56
2023/03/12 09:28:26;;;;;;;0.00;0.00;;;;;;;7.01;100.00;98355.25;4985355;28;20232;-56
2023/03/12 09:30:52;;;;;;;0.00;0.00;;;;;;;7.06;100.00;98354.88;4984223;28;20645;-54
2023/03/12 09:33:20;;;;;;;0.00;0.00;;;;;;;7.12;100.00;98356.94;4985993;28;20777;-57
2023/03/12 09:35:55;;;;;;;0.00;0.00;;;;;;;7.19;100.00;98363.22;4982731;28;20245;-57
2023/03/12 09:38:22;;;;;;;0.00;0.00;;;;;;;7.30;100.00;98356.25;4985059;28;20252;-57
2023/03/12 09:40:49;;;;;;;0.00;0.00;;;;;;;7.38;100.00;98356.41;4974581;28;20622;-54
2023/03/12 09:43:22;;;;;;;5.73;2.20;;;;;;;7.64;100.00;98361.00;4985793;28;20299;-54
2023/03/12 09:45:49;;;;;;;9.00;2.70;;;;;;;7.76;100.00;98364.28;4982447;28;20718;-54
2023/03/12 09:48:24;;;;;;;9.73;2.70;;;;;;;7.86;100.00;98362.50;4985929;28;20706;-57
2023/03/12 09:50:51;;;;;;;7.47;2.37;;;;;;;8.00;100.00;98369.03;4963742;28;20250;-55
2023/03/12 09:53:28;;;;;;;5.47;2.63;;;;;;;8.10;100.00;98369.81;4966518;28;20238;-55
2023/03/12 09:55:57;;;;;;;5.57;2.40;;;;;;;8.04;100.00;98362.56;4982787;28;20234;-57
2023/03/12 09:58:27;;;;;;;5.83;2.13;;;;;;;8.03;100.00;98370.50;4984086;28;20246;-56
2023/03/12 10:01:05;;;;;;;8.07;2.50;;;;;;;8.17;100.00;98371.84;4983839;28;20231;-57
2023/03/12 10:04:14;;;;;;;7.70;1.93;;;;;;;8.16;100.00;98373.63;4982523;28;20663;-55
2023/03/12 10:06:49;;;;;;;7.53;2.70;;;;;;;8.29;100.00;98362.91;4934602;28;20235;-54
2023/03/12 10:09:33;;;;;;;6.07;1.80;;;;;;;8.25;100.00;98377.97;4966052;28;20238;-57
2023/03/12 10:12:09;;;;;;;7.33;2.00;;;;;;;8.48;100.00;98379.41;4982649;28;20289;-55
2023/03/12 10:14:47;;;;;;;7.73;2.30;;;;;;;8.61;100.00;98387.72;4982313;28;20322;-57
2023/03/12 10:17:28;;;;;;;5.67;1.93;;;;;;;8.83;100.00;98398.69;4968951;28;20281;-55
2023/03/12 10:20:22;;;;;;;4.10;1.50;;;;;;;9.06;100.00;98393.91;4974312;28;20295;-54
2023/03/12 10:22:59;;;;;;;6.03;1.80;;;;;;;9.28;99.82;98390.06;4982181;28;20251;-53
2023/03/12 10:25:31;;;;;;;4.37;2.17;;;;;;;9.27;99.65;98401.47;4984227;28;20237;-55
2023/03/12 10:28:02;;;;;;;9.70;2.13;;;;;;;9.34;99.23;98390.44;4977407;28;20242;-53
2023/03/12 10:30:32;;;;;;;5.33;2.13;;;;;;;9.18;100.00;98404.94;4984318;28;20231;-54
2023/03/12 10:33:01;;;;;;;7.43;2.00;;;;;;;9.10;100.00;98394.44;4976860;28;20247;-53
2023/03/12 10:35:30;;;;;;;5.37;2.00;;;;;;;9.17;100.00;98403.31;4984003;28;20242;-55
2023/03/12 10:38:01;;;;;;;8.27;2.03;;;;;;;9.13;97.84;98404.56;4977154;28;20222;-54
2023/03/12 10:40:29;;;;;;;7.73;2.00;;;;;;;8.94;100.00;98411.53;4983916;28;20231;-54
2023/03/12 10:42:58;;;;;;;6.97;2.10;;;;;;;9.26;98.77;98402.44;4976657;28;20316;-56
2023/03/12 10:45:31;;;;;;;8.80;2.20;;;;;;;9.47;97.29;98406.53;4983852;28;20237;-55
2023/03/12 10:48:02;;;;;;;8.30;2.30;;;;;;;9.64;99.57;98411.84;4983828;28;20670;-57
2023/03/12 10:50:30;;;;;;;5.13;2.07;;;;;;;9.89;98.17;98410.28;4985821;28;20235;-55
2023/03/12 10:53:21;;;;;;;8.90;2.70;;;;;;;10.04;97.43;98413.16;4986873;28;20325;-55
2023/03/12 10:56:01;;;;;;;5.47;2.10;;;;;;;10.33;95.34;98409.41;4985971;28;20224;-55
2023/03/12 10:58:33;;;;;;;7.50;2.33;;;;;;;10.51;93.53;98411.19;4987378;28;20235;-56
2023/03/12 11:01:01;;;;;;;7.27;2.53;;;;;;;10.62;90.75;98408.28;4987205;28;20235;-57
2023/03/12 11:03:28;;;;;;;5.30;1.97;;;;;;;10.72;90.86;98403.75;4986857;28;20233;-56
2023/03/12 11:05:58;;;;;;;5.93;2.40;;;;;;;10.89;90.66;98414.25;4985658;28;20234;-53
2023/03/12 11:08:28;;;;;;;5.17;1.90;;;;;;;11.04;89.33;98404.84;4985991;28;20775;-54
2023/03/12 11:10:55;;;;;;;7.43;3.13;;;;;;;11.18;90.56;98399.97;4986380;28;20601;-57
2023/03/12 11:13:29;;;;;;;6.73;2.00;;;;;;;11.64;89.86;98405.59;4988067;28;20217;-54
2023/03/12 11:15:56;;;;;;;7.27;2.50;;;;;;;11.62;89.67;98397.09;4985057;28;20315;-54
2023/03/12 11:18:53;;;;;;;8.23;2.33;;;;;;;11.86;87.75;98397.25;4987946;28;20776;-56
2023/03/12 11:21:20;;;;;;;9.00;2.30;;;;;;;11.99;86.99;98401.97;4984611;28;20680;-56
2023/03/12 11:24:06;;;;;;;14.40;7.17;;;;;;;12.36;88.70;98404.03;4984063;28;20808;-56
2023/03/12 11:26:37;;;;;;;19.07;10.40;;;;;;;12.50;87.04;98410.41;4985157;28;20670;-57
2023/03/12 11:29:11;;;;;;;6.63;2.63;;;;;;;12.43;85.57;98409.44;4986856;28;20713;-57
2023/03/12 11:31:43;;;;;;;7.70;3.50;;;;;;;12.58;83.09;98403.50;4984213;28;20570;-55
2023/03/12 11:34:20;;;;;;;6.70;2.87;;;;;;;12.48;82.42;98414.16;4985944;28;20229;-56
2023/03/12 11:36:54;;;;;;;6.27;2.20;;;;;;;11.81;83.26;98410.78;4984161;28;20877;-56
2023/03/12 11:39:30;;;;;;;8.47;3.23;;;;;;;11.21;88.04;98399.66;4987108;28;20711;-57
2023/03/12 11:42:09;;;;;;;9.07;2.83;;;;;;;11.11;90.46;98391.97;4983640;28;20236;-54
2023/03/12 11:44:44;;;;;;;5.93;2.47;;;;;;;11.00;88.73;98402.72;4984081;28;20228;-57